< < Back
Terminal Aerodrome Forecast


Current Version              Previous Versions:   1  2  3  4  5  6  7  8  9  

Terminal Aerodrome Forecast

394
FTUS42 KTAE 241700
TAFTLH
TAF
KTLH 241723Z 2418/2518 18008KT P6SM SCT050
     FM250100 VRB03KT P6SM SKC
     FM250700 27003KT 1SM BR BKN003
     FM251300 24010KT P6SM SCT025 BKN060=

Latest METAR

209
SAUS80 KWBC 242000
MTRTLH
METAR KTLH 241953Z 18007KT 10SM FEW055 SCT075 29/13 A2994 RMK AO2 SLP136
T02940128


USA.gov is the U.S. government's official web portal to all federal, state and local government web resources and services.